sensor_id;sensor_type;location;lat;lon;timestamp;pressure;altitude;pressure_sealevel;temperature;humidity
26657;BME280;14279;50.010;8.260;2022-08-01T00:01:37;100373.72;;;24.43;51.78
26657;BME280;14279;50.010;8.260;2022-08-01T00:04:03;100361.53;;;24.32;52.12
26657;BME280;14279;50.010;8.260;2022-08-01T00:06:28;100364.53;;;24.37;52.08
26657;BME280;14279;50.010;8.260;2022-08-01T00:08:54;100379.16;;;24.33;52.24
26657;BME280;14279;50.010;8.260;2022-08-01T00:11:19;100373.97;;;24.23;52.57
26657;BME280;14279;50.010;8.260;2022-08-01T00:13:45;100370.44;;;24.14;52.51
26657;BME280;14279;50.010;8.260;2022-08-01T00:16:10;100379.09;;;24.16;52.79
26657;BME280;14279;50.010;8.260;2022-08-01T00:18:35;100384.59;;;24.15;52.90
26657;BME280;14279;50.010;8.260;2022-08-01T00:21:02;100384.59;;;24.15;52.71
26657;BME280;14279;50.010;8.260;2022-08-01T00:23:27;100386.31;;;23.98;53.47
26657;BME280;14279;50.010;8.260;2022-08-01T00:25:53;100393.75;;;23.94;53.81
26657;BME280;14279;50.010;8.260;2022-08-01T00:28:18;100384.84;;;24.04;53.44
26657;BME280;14279;50.010;8.260;2022-08-01T00:30:43;100382.19;;;24.04;53.33
26657;BME280;14279;50.010;8.260;2022-08-01T00:33:08;100374.91;;;23.87;53.92
26657;BME280;14279;50.010;8.260;2022-08-01T00:35:34;100381.13;;;23.96;53.73
26657;BME280;14279;50.010;8.260;2022-08-01T00:37:59;100386.09;;;23.91;53.73
26657;BME280;14279;50.010;8.260;2022-08-01T00:40:24;100377.75;;;23.86;53.92
26657;BME280;14279;50.010;8.260;2022-08-01T00:42:49;100377.44;;;23.89;54.13
26657;BME280;14279;50.010;8.260;2022-08-01T00:45:15;100382.19;;;23.77;54.27
26657;BME280;14279;50.010;8.260;2022-08-01T00:47:40;100382.22;;;23.85;54.07
26657;BME280;14279;50.010;8.260;2022-08-01T00:50:06;100389.53;;;23.57;55.03
26657;BME280;14279;50.010;8.260;2022-08-01T00:52:33;100378.31;;;23.71;54.70
26657;BME280;14279;50.010;8.260;2022-08-01T00:54:58;100382.97;;;23.69;54.70
26657;BME280;14279;50.010;8.260;2022-08-01T00:57:24;100382.13;;;23.69;54.67
26657;BME280;14279;50.010;8.260;2022-08-01T00:59:49;100385.16;;;23.74;54.75
26657;BME280;14279;50.010;8.260;2022-08-01T01:02:15;100382.50;;;23.74;54.72
26657;BME280;14279;50.010;8.260;2022-08-01T01:04:42;100394.06;;;23.65;55.23
26657;BME280;14279;50.010;8.260;2022-08-01T01:07:26;100389.00;;;23.53;55.45
26657;BME280;14279;50.010;8.260;2022-08-01T01:13:00;100394.47;;;23.52;55.77
26657;BME280;14279;50.010;8.260;2022-08-01T01:15:39;100392.59;;;23.44;55.84
26657;BME280;14279;50.010;8.260;2022-08-01T01:18:13;100391.38;;;23.38;56.12
26657;BME280;14279;50.010;8.260;2022-08-01T01:20:44;100399.94;;;23.50;55.87
26657;BME280;14279;50.010;8.260;2022-08-01T01:23:28;100394.25;;;23.45;56.07
26657;BME280;14279;50.010;8.260;2022-08-01T01:31:27;100402.63;;;23.32;56.22
26657;BME280;14279;50.010;8.260;2022-08-01T01:33:54;100402.28;;;23.17;56.56
26657;BME280;14279;50.010;8.260;2022-08-01T01:36:22;100398.25;;;23.23;56.69
26657;BME280;14279;50.010;8.260;2022-08-01T01:38:50;100396.47;;;23.14;56.86
26657;BME280;14279;50.010;8.260;2022-08-01T01:41:17;100404.56;;;23.12;56.90
26657;BME280;14279;50.010;8.260;2022-08-01T01:43:45;100397.16;;;23.16;56.72
26657;BME280;14279;50.010;8.260;2022-08-01T01:46:12;100405.25;;;23.14;56.76
26657;BME280;14279;50.010;8.260;2022-08-01T01:48:43;100404.72;;;23.10;56.80
26657;BME280;14279;50.010;8.260;2022-08-01T01:51:10;100404.34;;;23.05;57.02
26657;BME280;14279;50.010;8.260;2022-08-01T01:53:37;100408.44;;;23.00;57.31
26657;BME280;14279;50.010;8.260;2022-08-01T01:56:03;100408.81;;;22.87;57.40
26657;BME280;14279;50.010;8.260;2022-08-01T01:58:30;100409.09;;;22.84;57.82
26657;BME280;14279;50.010;8.260;2022-08-01T02:00:58;100417.59;;;22.69;58.02
26657;BME280;14279;50.010;8.260;2022-08-01T02:03:25;100408.09;;;22.66;58.51
26657;BME280;14279;50.010;8.260;2022-08-01T02:05:52;100404.50;;;22.58;58.67
26657;BME280;14279;50.010;8.260;2022-08-01T02:08:19;100411.41;;;22.50;58.98
26657;BME280;14279;50.010;8.260;2022-08-01T02:10:46;100415.03;;;22.49;58.99
26657;BME280;14279;50.010;8.260;2022-08-01T02:13:32;100415.34;;;22.46;59.04
26657;BME280;14279;50.010;8.260;2022-08-01T02:16:00;100412.25;;;22.41;59.37
26657;BME280;14279;50.010;8.260;2022-08-01T02:18:25;100423.00;;;22.40;59.42
26657;BME280;14279;50.010;8.260;2022-08-01T02:20:52;100412.00;;;22.34;59.63
26657;BME280;14279;50.010;8.260;2022-08-01T02:23:20;100408.38;;;22.35;59.49
26657;BME280;14279;50.010;8.260;2022-08-01T02:25:49;100406.53;;;22.36;59.33
26657;BME280;14279;50.010;8.260;2022-08-01T02:28:20;100414.38;;;22.28;59.90
26657;BME280;14279;50.010;8.260;2022-08-01T02:30:50;100417.44;;;22.33;60.04
26657;BME280;14279;50.010;8.260;2022-08-01T02:33:23;100407.56;;;22.25;59.88
26657;BME280;14279;50.010;8.260;2022-08-01T02:35:56;100412.34;;;22.21;60.08
26657;BME280;14279;50.010;8.260;2022-08-01T02:38:25;100409.16;;;22.08;60.44
26657;BME280;14279;50.010;8.260;2022-08-01T02:40:52;100414.19;;;22.11;60.40
26657;BME280;14279;50.010;8.260;2022-08-01T02:43:21;100412.91;;;22.15;60.20
26657;BME280;14279;50.010;8.260;2022-08-01T02:45:54;100412.66;;;22.09;60.49
26657;BME280;14279;50.010;8.260;2022-08-01T02:48:22;100402.75;;;22.11;60.54
26657;BME280;14279;50.010;8.260;2022-08-01T02:50:49;100413.75;;;22.16;60.20
26657;BME280;14279;50.010;8.260;2022-08-01T02:53:18;100407.22;;;22.10;60.48
26657;BME280;14279;50.010;8.260;2022-08-01T02:55:46;100404.16;;;22.15;60.39
26657;BME280;14279;50.010;8.260;2022-08-01T02:58:14;100404.44;;;22.12;60.39
26657;BME280;14279;50.010;8.260;2022-08-01T03:00:42;100406.97;;;22.03;60.92
26657;BME280;14279;50.010;8.260;2022-08-01T03:03:09;100405.28;;;22.02;60.94
26657;BME280;14279;50.010;8.260;2022-08-01T03:05:35;100404.59;;;22.00;60.96
26657;BME280;14279;50.010;8.260;2022-08-01T03:08:02;100403.09;;;21.98;60.88
26657;BME280;14279;50.010;8.260;2022-08-01T03:10:29;100410.34;;;21.96;61.11
26657;BME280;14279;50.010;8.260;2022-08-01T03:12:57;100404.19;;;21.95;60.94
26657;BME280;14279;50.010;8.260;2022-08-01T03:15:24;100395.13;;;21.98;60.61
26657;BME280;14279;50.010;8.260;2022-08-01T03:17:52;100401.41;;;21.97;60.75
26657;BME280;14279;50.010;8.260;2022-08-01T03:20:18;100398.31;;;22.01;60.51
26657;BME280;14279;50.010;8.260;2022-08-01T03:22:46;100409.38;;;21.97;61.03
26657;BME280;14279;50.010;8.260;2022-08-01T03:25:15;100404.88;;;21.97;61.02
26657;BME280;14279;50.010;8.260;2022-08-01T03:27:43;100406.44;;;22.00;61.00
26657;BME280;14279;50.010;8.260;2022-08-01T03:30:08;100406.03;;;21.95;61.08
26657;BME280;14279;50.010;8.260;2022-08-01T03:32:35;100412.28;;;21.94;61.06
26657;BME280;14279;50.010;8.260;2022-08-01T03:35:16;100406.84;;;21.95;61.07
26657;BME280;14279;50.010;8.260;2022-08-01T03:37:56;100415.59;;;22.05;60.56
26657;BME280;14279;50.010;8.260;2022-08-01T03:42:56;100417.84;;;22.00;60.84
26657;BME280;14279;50.010;8.260;2022-08-01T03:45:25;100434.59;;;21.91;61.14
26657;BME280;14279;50.010;8.260;2022-08-01T03:47:56;100422.03;;;21.93;61.14
26657;BME280;14279;50.010;8.260;2022-08-01T03:50:24;100419.28;;;21.95;61.25
26657;BME280;14279;50.010;8.260;2022-08-01T03:52:50;100416.72;;;22.03;60.72
26657;BME280;14279;50.010;8.260;2022-08-01T03:55:17;100411.28;;;22.04;60.83
26657;BME280;14279;50.010;8.260;2022-08-01T03:57:53;100425.06;;;22.08;60.72
26657;BME280;14279;50.010;8.260;2022-08-01T04:00:28;100422.09;;;22.21;60.48
26657;BME280;14279;50.010;8.260;2022-08-01T04:02:55;100423.94;;;22.20;60.33
26657;BME280;14279;50.010;8.260;2022-08-01T04:05:21;100420.72;;;22.27;60.16
26657;BME280;14279;50.010;8.260;2022-08-01T04:07:49;100426.38;;;22.32;59.98
26657;BME280;14279;50.010;8.260;2022-08-01T04:10:24;100429.19;;;22.30;59.96
26657;BME280;14279;50.010;8.260;2022-08-01T04:12:51;100431.44;;;22.25;60.30
26657;BME280;14279;50.010;8.260;2022-08-01T04:15:17;100434.56;;;22.11;60.46
26657;BME280;14279;50.010;8.260;2022-08-01T04:18:10;100430.34;;;22.18;60.73
26657;BME280;14279;50.010;8.260;2022-08-01T04:20:36;100430.22;;;22.19;60.78
26657;BME280;14279;50.010;8.260;2022-08-01T04:23:29;100431.97;;;22.29;59.92
26657;BME280;14279;50.010;8.260;2022-08-01T04:26:18;100438.66;;;22.33;60.04
26657;BME280;14279;50.010;8.260;2022-08-01T04:28:45;100446.22;;;22.28;60.04
26657;BME280;14279;50.010;8.260;2022-08-01T04:31:11;100447.78;;;22.20;60.63
26657;BME280;14279;50.010;8.260;2022-08-01T04:33:42;100443.16;;;22.32;60.49
26657;BME280;14279;50.010;8.260;2022-08-01T04:36:10;100453.63;;;22.24;60.16
26657;BME280;14279;50.010;8.260;2022-08-01T04:38:38;100453.50;;;22.26;60.32
26657;BME280;14279;50.010;8.260;2022-08-01T04:41:07;100454.03;;;22.29;60.30
26657;BME280;14279;50.010;8.260;2022-08-01T04:43:36;100456.84;;;22.18;60.69
26657;BME280;14279;50.010;8.260;2022-08-01T04:46:02;100461.09;;;22.01;61.16
26657;BME280;14279;50.010;8.260;2022-08-01T04:48:29;100460.00;;;21.94;61.48
26657;BME280;14279;50.010;8.260;2022-08-01T04:50:55;100466.56;;;21.80;61.78
26657;BME280;14279;50.010;8.260;2022-08-01T04:53:20;100468.25;;;21.71;62.06
26657;BME280;14279;50.010;8.260;2022-08-01T04:59:27;100465.19;;;21.66;62.49
26657;BME280;14279;50.010;8.260;2022-08-01T05:02:05;100468.53;;;21.77;62.39
26657;BME280;14279;50.010;8.260;2022-08-01T05:04:34;100464.06;;;21.88;61.62
26657;BME280;14279;50.010;8.260;2022-08-01T05:07:03;100472.38;;;22.03;61.40
26657;BME280;14279;50.010;8.260;2022-08-01T05:09:29;100476.72;;;21.94;61.71
26657;BME280;14279;50.010;8.260;2022-08-01T05:11:56;100476.31;;;21.99;61.56
26657;BME280;14279;50.010;8.260;2022-08-01T05:14:23;100469.06;;;21.91;61.70
26657;BME280;14279;50.010;8.260;2022-08-01T05:16:48;100466.97;;;21.95;61.68
26657;BME280;14279;50.010;8.260;2022-08-01T05:19:13;100471.81;;;22.09;61.22
26657;BME280;14279;50.010;8.260;2022-08-01T05:22:07;100471.66;;;22.20;60.97
26657;BME280;14279;50.010;8.260;2022-08-01T05:25:34;100475.63;;;21.97;61.82
26657;BME280;14279;50.010;8.260;2022-08-01T05:31:51;100481.47;;;21.90;61.95
26657;BME280;14279;50.010;8.260;2022-08-01T05:34:17;100480.78;;;21.79;62.47
26657;BME280;14279;50.010;8.260;2022-08-01T05:36:43;100491.53;;;21.87;62.24
26657;BME280;14279;50.010;8.260;2022-08-01T05:39:08;100485.66;;;21.83;62.55
26657;BME280;14279;50.010;8.260;2022-08-01T05:41:35;100489.00;;;21.85;62.43
26657;BME280;14279;50.010;8.260;2022-08-01T05:44:02;100487.91;;;21.88;62.67
26657;BME280;14279;50.010;8.260;2022-08-01T05:46:27;100492.09;;;21.90;62.24
26657;BME280;14279;50.010;8.260;2022-08-01T05:48:53;100485.94;;;22.00;61.99
26657;BME280;14279;50.010;8.260;2022-08-01T05:51:18;100491.03;;;22.21;61.53
26657;BME280;14279;50.010;8.260;2022-08-01T05:53:44;100489.78;;;22.25;60.96
26657;BME280;14279;50.010;8.260;2022-08-01T05:56:09;100488.75;;;22.46;60.77
26657;BME280;14279;50.010;8.260;2022-08-01T05:58:34;100488.63;;;22.47;60.45
26657;BME280;14279;50.010;8.260;2022-08-01T06:00:59;100484.00;;;22.40;60.45
26657;BME280;14279;50.010;8.260;2022-08-01T06:03:44;100490.81;;;22.52;60.04
26657;BME280;14279;50.010;8.260;2022-08-01T06:06:31;100488.34;;;22.50;60.12
26657;BME280;14279;50.010;8.260;2022-08-01T06:08:56;100495.31;;;22.79;59.53
26657;BME280;14279;50.010;8.260;2022-08-01T06:11:21;100493.09;;;23.03;58.89
26657;BME280;14279;50.010;8.260;2022-08-01T06:13:47;100496.38;;;23.15;58.53
26657;BME280;14279;50.010;8.260;2022-08-01T06:16:12;100501.38;;;23.18;58.40
26657;BME280;14279;50.010;8.260;2022-08-01T06:18:37;100502.78;;;23.12;58.68
26657;BME280;14279;50.010;8.260;2022-08-01T06:21:03;100505.59;;;23.38;57.76
26657;BME280;14279;50.010;8.260;2022-08-01T06:23:28;100511.16;;;23.17;58.63
26657;BME280;14279;50.010;8.260;2022-08-01T06:25:54;100512.78;;;23.28;58.22
26657;BME280;14279;50.010;8.260;2022-08-01T06:28:25;100507.56;;;23.54;57.00
26657;BME280;14279;50.010;8.260;2022-08-01T06:30:51;100509.47;;;23.44;57.77
26657;BME280;14279;50.010;8.260;2022-08-01T06:33:16;100504.53;;;23.67;56.97
26657;BME280;14279;50.010;8.260;2022-08-01T06:35:41;100508.38;;;23.37;57.78
26657;BME280;14279;50.010;8.260;2022-08-01T06:38:07;100514.78;;;23.44;57.66
26657;BME280;14279;50.010;8.260;2022-08-01T06:40:32;100513.81;;;23.17;58.29
26657;BME280;14279;50.010;8.260;2022-08-01T06:43:01;100510.16;;;23.46;57.54
26657;BME280;14279;50.010;8.260;2022-08-01T06:45:26;100518.97;;;23.47;57.71
26657;BME280;14279;50.010;8.260;2022-08-01T06:47:52;100514.03;;;23.06;58.39
26657;BME280;14279;50.010;8.260;2022-08-01T06:50:18;100512.81;;;23.18;58.10
26657;BME280;14279;50.010;8.260;2022-08-01T06:52:43;100512.59;;;23.11;58.48
26657;BME280;14279;50.010;8.260;2022-08-01T06:55:09;100511.91;;;23.37;57.72
26657;BME280;14279;50.010;8.260;2022-08-01T06:57:34;100520.56;;;23.58;57.36
26657;BME280;14279;50.010;8.260;2022-08-01T07:00:06;100525.63;;;23.69;57.11
26657;BME280;14279;50.010;8.260;2022-08-01T07:02:36;100528.81;;;23.72;56.83
26657;BME280;14279;50.010;8.260;2022-08-01T07:05:02;100521.63;;;23.19;58.33
26657;BME280;14279;50.010;8.260;2022-08-01T07:07:29;100520.84;;;23.08;58.32
26657;BME280;14279;50.010;8.260;2022-08-01T07:09:54;100528.38;;;23.13;58.78
26657;BME280;14279;50.010;8.260;2022-08-01T07:12:19;100510.66;;;23.50;57.78
26657;BME280;14279;50.010;8.260;2022-08-01T07:14:45;100514.78;;;23.80;56.61
26657;BME280;14279;50.010;8.260;2022-08-01T07:17:10;100506.94;;;23.61;57.35
26657;BME280;14279;50.010;8.260;2022-08-01T07:19:35;100514.09;;;23.60;57.58
26657;BME280;14279;50.010;8.260;2022-08-01T07:22:02;100507.94;;;23.60;57.17
26657;BME280;14279;50.010;8.260;2022-08-01T07:24:42;100511.81;;;23.83;56.40
26657;BME280;14279;50.010;8.260;2022-08-01T07:27:07;100508.81;;;23.86;56.25
26657;BME280;14279;50.010;8.260;2022-08-01T07:29:33;100510.16;;;23.82;56.56
26657;BME280;14279;50.010;8.260;2022-08-01T07:31:58;100504.34;;;24.05;55.89
26657;BME280;14279;50.010;8.260;2022-08-01T07:34:26;100501.53;;;24.07;55.86
26657;BME280;14279;50.010;8.260;2022-08-01T07:36:57;100503.78;;;24.20;55.53
26657;BME280;14279;50.010;8.260;2022-08-01T07:39:58;100500.31;;;24.27;55.41
26657;BME280;14279;50.010;8.260;2022-08-01T07:42:23;100497.00;;;24.60;54.39
26657;BME280;14279;50.010;8.260;2022-08-01T07:44:48;100495.63;;;24.56;54.45
26657;BME280;14279;50.010;8.260;2022-08-01T07:47:13;100504.97;;;23.81;56.48
26657;BME280;14279;50.010;8.260;2022-08-01T07:49:42;100503.28;;;24.24;55.50
26657;BME280;14279;50.010;8.260;2022-08-01T08:09:37;100505.97;;;24.59;54.86
26657;BME280;14279;50.010;8.260;2022-08-01T08:12:06;100507.50;;;24.70;54.31
26657;BME280;14279;50.010;8.260;2022-08-01T08:14:31;100503.25;;;24.77;54.68
26657;BME280;14279;50.010;8.260;2022-08-01T08:16:56;100508.31;;;24.97;54.21
26657;BME280;14279;50.010;8.260;2022-08-01T08:19:22;100515.28;;;24.89;54.44
26657;BME280;14279;50.010;8.260;2022-08-01T08:21:47;100508.13;;;25.58;52.60
26657;BME280;14279;50.010;8.260;2022-08-01T08:24:15;100508.47;;;24.95;53.95
26657;BME280;14279;50.010;8.260;2022-08-01T08:26:47;100514.81;;;24.68;54.57
26657;BME280;14279;50.010;8.260;2022-08-01T08:29:14;100517.91;;;24.81;53.95
26657;BME280;14279;50.010;8.260;2022-08-01T08:31:39;100519.97;;;25.04;53.11
26657;BME280;14279;50.010;8.260;2022-08-01T08:34:04;100519.75;;;24.89;53.62
26657;BME280;14279;50.010;8.260;2022-08-01T08:36:30;100522.84;;;25.19;52.91
26657;BME280;14279;50.010;8.260;2022-08-01T08:38:55;100516.44;;;25.46;52.15
26657;BME280;14279;50.010;8.260;2022-08-01T08:41:21;100523.78;;;25.69;51.84
26657;BME280;14279;50.010;8.260;2022-08-01T08:43:47;100520.75;;;25.47;52.25
26657;BME280;14279;50.010;8.260;2022-08-01T08:46:13;100520.00;;;25.20;53.02
26657;BME280;14279;50.010;8.260;2022-08-01T08:48:42;100516.75;;;25.43;52.27
26657;BME280;14279;50.010;8.260;2022-08-01T08:51:08;100519.28;;;24.94;53.83
26657;BME280;14279;50.010;8.260;2022-08-01T08:53:37;100515.22;;;25.24;53.23
26657;BME280;14279;50.010;8.260;2022-08-01T08:56:03;100512.56;;;25.41;53.11
26657;BME280;14279;50.010;8.260;2022-08-01T08:58:32;100513.53;;;24.72;54.61
26657;BME280;14279;50.010;8.260;2022-08-01T09:01:05;100514.28;;;24.90;54.44
26657;BME280;14279;50.010;8.260;2022-08-01T09:03:30;100518.88;;;24.45;55.93
26657;BME280;14279;50.010;8.260;2022-08-01T09:05:55;100519.88;;;24.44;56.04
26657;BME280;14279;50.010;8.260;2022-08-01T09:08:42;100520.53;;;24.20;56.60
26657;BME280;14279;50.010;8.260;2022-08-01T09:11:07;100517.56;;;24.23;56.54
26657;BME280;14279;50.010;8.260;2022-08-01T09:13:32;100516.91;;;24.56;55.38
26657;BME280;14279;50.010;8.260;2022-08-01T09:15:58;100516.97;;;24.29;56.29
26657;BME280;14279;50.010;8.260;2022-08-01T09:18:34;100514.41;;;24.81;54.86
26657;BME280;14279;50.010;8.260;2022-08-01T09:23:37;100513.38;;;25.25;53.16
26657;BME280;14279;50.010;8.260;2022-08-01T09:26:15;100514.09;;;25.43;52.66
26657;BME280;14279;50.010;8.260;2022-08-01T09:28:42;100514.44;;;25.73;51.93
26657;BME280;14279;50.010;8.260;2022-08-01T09:31:10;100522.72;;;25.29;52.45
26657;BME280;14279;50.010;8.260;2022-08-01T09:33:55;100514.78;;;25.70;51.34
26657;BME280;14279;50.010;8.260;2022-08-01T09:36:24;100514.91;;;26.02;50.84
26657;BME280;14279;50.010;8.260;2022-08-01T09:38:51;100512.59;;;25.99;50.53
26657;BME280;14279;50.010;8.260;2022-08-01T09:41:17;100517.78;;;25.75;51.26
26657;BME280;14279;50.010;8.260;2022-08-01T09:43:49;100510.25;;;26.04;50.25
26657;BME280;14279;50.010;8.260;2022-08-01T09:46:15;100511.59;;;25.91;51.13
26657;BME280;14279;50.010;8.260;2022-08-01T09:48:55;100509.47;;;25.87;50.28
26657;BME280;14279;50.010;8.260;2022-08-01T09:51:34;100509.59;;;26.18;49.88
26657;BME280;14279;50.010;8.260;2022-08-01T09:54:01;100508.44;;;26.13;50.04
26657;BME280;14279;50.010;8.260;2022-08-01T09:56:36;100521.22;;;25.34;51.60
26657;BME280;14279;50.010;8.260;2022-08-01T10:04:57;100513.28;;;25.92;50.05
26657;BME280;14279;50.010;8.260;2022-08-01T10:07:23;100512.09;;;26.28;49.08
26657;BME280;14279;50.010;8.260;2022-08-01T10:09:49;100511.59;;;26.73;48.36
26657;BME280;14279;50.010;8.260;2022-08-01T10:12:28;100501.38;;;26.84;48.56
26657;BME280;14279;50.010;8.260;2022-08-01T10:14:53;100508.50;;;27.24;47.23
26657;BME280;14279;50.010;8.260;2022-08-01T10:17:20;100505.75;;;27.64;45.54
26657;BME280;14279;50.010;8.260;2022-08-01T10:19:49;100505.44;;;27.97;45.40
26657;BME280;14279;50.010;8.260;2022-08-01T10:22:16;100499.38;;;28.03;45.18
26657;BME280;14279;50.010;8.260;2022-08-01T10:25:02;100506.06;;;27.84;45.51
26657;BME280;14279;50.010;8.260;2022-08-01T10:27:53;100487.66;;;27.66;44.26
26657;BME280;14279;50.010;8.260;2022-08-01T10:30:22;100493.97;;;27.26;45.27
26657;BME280;14279;50.010;8.260;2022-08-01T10:39:58;100488.38;;;27.98;43.39
26657;BME280;14279;50.010;8.260;2022-08-01T10:42:24;100480.16;;;27.84;43.42
26657;BME280;14279;50.010;8.260;2022-08-01T10:45:02;100472.94;;;27.70;43.31
26657;BME280;14279;50.010;8.260;2022-08-01T10:47:39;100482.13;;;28.05;42.93
26657;BME280;14279;50.010;8.260;2022-08-01T10:53:29;100475.06;;;27.74;43.62
26657;BME280;14279;50.010;8.260;2022-08-01T10:56:37;100472.34;;;27.59;43.73
26657;BME280;14279;50.010;8.260;2022-08-01T10:59:52;100470.22;;;27.55;43.63
26657;BME280;14279;50.010;8.260;2022-08-01T11:05:09;100461.56;;;27.29;44.39
26657;BME280;14279;50.010;8.260;2022-08-01T11:07:43;100457.38;;;27.27;44.39
26657;BME280;14279;50.010;8.260;2022-08-01T11:12:47;100459.22;;;27.88;43.03
26657;BME280;14279;50.010;8.260;2022-08-01T11:17:40;100448.75;;;28.16;42.36
26657;BME280;14279;50.010;8.260;2022-08-01T11:20:26;100449.13;;;28.28;42.42
26657;BME280;14279;50.010;8.260;2022-08-01T11:31:49;100442.59;;;29.04;40.38
26657;BME280;14279;50.010;8.260;2022-08-01T11:34:15;100444.38;;;29.62;38.91
26657;BME280;14279;50.010;8.260;2022-08-01T11:36:40;100444.72;;;29.52;39.30
26657;BME280;14279;50.010;8.260;2022-08-01T11:41:33;100436.47;;;28.37;40.59
26657;BME280;14279;50.010;8.260;2022-08-01T11:44:08;100433.47;;;28.62;39.82
26657;BME280;14279;50.010;8.260;2022-08-01T11:47:15;100434.00;;;28.72;40.04
26657;BME280;14279;50.010;8.260;2022-08-01T11:49:46;100429.63;;;28.49;40.36
26657;BME280;14279;50.010;8.260;2022-08-01T11:52:44;100437.16;;;27.71;41.45
26657;BME280;14279;50.010;8.260;2022-08-01T11:55:16;100431.97;;;27.69;41.76
26657;BME280;14279;50.010;8.260;2022-08-01T11:57:41;100420.78;;;28.19;40.70
26657;BME280;14279;50.010;8.260;2022-08-01T12:00:16;100411.66;;;28.28;41.09
26657;BME280;14279;50.010;8.260;2022-08-01T12:02:46;100416.44;;;28.33;41.54
26657;BME280;14279;50.010;8.260;2022-08-01T12:05:13;100420.13;;;28.69;40.07
26657;BME280;14279;50.010;8.260;2022-08-01T12:07:40;100418.28;;;28.84;39.58
26657;BME280;14279;50.010;8.260;2022-08-01T12:10:07;100418.34;;;29.34;39.00
26657;BME280;14279;50.010;8.260;2022-08-01T12:12:35;100411.06;;;29.28;38.93
26657;BME280;14279;50.010;8.260;2022-08-01T12:15:06;100405.78;;;29.35;38.85
26657;BME280;14279;50.010;8.260;2022-08-01T12:17:39;100409.38;;;28.62;39.75
26657;BME280;14279;50.010;8.260;2022-08-01T12:20:08;100412.28;;;28.45;40.17
26657;BME280;14279;50.010;8.260;2022-08-01T12:29:34;100416.81;;;28.00;40.72
26657;BME280;14279;50.010;8.260;2022-08-01T12:32:54;100415.50;;;27.96;40.78
26657;BME280;14279;50.010;8.260;2022-08-01T12:36:29;100424.09;;;27.91;41.05
26657;BME280;14279;50.010;8.260;2022-08-01T12:40:01;100422.78;;;27.72;41.49
26657;BME280;14279;50.010;8.260;2022-08-01T12:43:07;100422.06;;;27.78;40.91
26657;BME280;14279;50.010;8.260;2022-08-01T12:46:43;100406.50;;;28.27;40.17
26657;BME280;14279;50.010;8.260;2022-08-01T13:20:08;100410.81;;;29.01;38.02
26657;BME280;14279;50.010;8.260;2022-08-01T13:30:37;100407.22;;;28.72;38.41
26657;BME280;14279;50.010;8.260;2022-08-01T13:34:05;100405.34;;;28.88;38.20
26657;BME280;14279;50.010;8.260;2022-08-01T13:40:59;100399.19;;;28.20;39.29
26657;BME280;14279;50.010;8.260;2022-08-01T13:48:12;100420.13;;;27.87;39.54
26657;BME280;14279;50.010;8.260;2022-08-01T13:54:57;100414.41;;;27.75;39.49
26657;BME280;14279;50.010;8.260;2022-08-01T13:58:34;100409.03;;;27.75;39.42
26657;BME280;14279;50.010;8.260;2022-08-01T14:05:21;100396.91;;;28.17;40.29
26657;BME280;14279;50.010;8.260;2022-08-01T14:08:59;100403.31;;;27.93;41.15
26657;BME280;14279;50.010;8.260;2022-08-01T14:12:13;100408.31;;;27.66;41.89
26657;BME280;14279;50.010;8.260;2022-08-01T14:15:15;100400.84;;;27.92;41.44
26657;BME280;14279;50.010;8.260;2022-08-01T14:22:08;100403.06;;;28.03;41.86
26657;BME280;14279;50.010;8.260;2022-08-01T14:25:37;100404.28;;;28.15;41.44
26657;BME280;14279;50.010;8.260;2022-08-01T14:29:06;100409.16;;;27.97;42.40
26657;BME280;14279;50.010;8.260;2022-08-01T14:31:58;100400.47;;;28.10;42.45
26657;BME280;14279;50.010;8.260;2022-08-01T14:34:53;100405.75;;;28.03;41.98
26657;BME280;14279;50.010;8.260;2022-08-01T14:41:20;100409.84;;;27.60;42.59
26657;BME280;14279;50.010;8.260;2022-08-01T15:11:21;100406.69;;;27.19;44.28
26657;BME280;14279;50.010;8.260;2022-08-01T15:17:10;100411.75;;;27.90;43.40
26657;BME280;14279;50.010;8.260;2022-08-01T15:19:38;100413.28;;;27.84;43.32
26657;BME280;14279;50.010;8.260;2022-08-01T15:22:08;100410.41;;;27.71;43.24
26657;BME280;14279;50.010;8.260;2022-08-01T15:27:55;100415.31;;;27.67;43.40
26657;BME280;14279;50.010;8.260;2022-08-01T15:34:01;100412.94;;;28.17;43.00
26657;BME280;14279;50.010;8.260;2022-08-01T15:53:33;100418.19;;;27.96;43.95
26657;BME280;14279;50.010;8.260;2022-08-01T16:03:19;100416.81;;;27.23;44.37
26657;BME280;14279;50.010;8.260;2022-08-01T16:12:54;100415.53;;;27.19;44.67
26657;BME280;14279;50.010;8.260;2022-08-01T16:22:49;100414.50;;;27.20;42.64
26657;BME280;14279;50.010;8.260;2022-08-01T16:29:21;100421.63;;;27.28;43.19
26657;BME280;14279;50.010;8.260;2022-08-01T16:32:14;100420.63;;;27.29;43.36
26657;BME280;14279;50.010;8.260;2022-08-01T16:38:11;100419.25;;;27.33;42.54
26657;BME280;14279;50.010;8.260;2022-08-01T16:40:37;100422.22;;;27.38;43.11
26657;BME280;14279;50.010;8.260;2022-08-01T16:43:03;100412.59;;;27.29;42.40
26657;BME280;14279;50.010;8.260;2022-08-01T16:45:29;100404.06;;;27.10;42.38
26657;BME280;14279;50.010;8.260;2022-08-01T16:47:54;100407.84;;;27.16;41.81
26657;BME280;14279;50.010;8.260;2022-08-01T16:50:21;100403.72;;;27.13;42.21
26657;BME280;14279;50.010;8.260;2022-08-01T16:52:46;100404.13;;;27.25;42.35
26657;BME280;14279;50.010;8.260;2022-08-01T16:58:48;100408.75;;;27.08;43.09
26657;BME280;14279;50.010;8.260;2022-08-01T17:01:17;100405.69;;;27.35;42.71
26657;BME280;14279;50.010;8.260;2022-08-01T17:04:18;100421.44;;;27.53;42.69
26657;BME280;14279;50.010;8.260;2022-08-01T17:16:33;100427.69;;;27.22;43.39
26657;BME280;14279;50.010;8.260;2022-08-01T17:56:25;100439.56;;;26.16;45.33